Flight Track Log - Related Links

Times and Time Zones

All times are in EDT time to prevent confusion due to time zone crossing. See the AAL667 flight status page for this flight to view local times or setup timezone preferences in your user account.

Time Position Orientation Groundspeed Altitude Reporting Facility
EDT Latitude Longitude Course Direction KTS MPH feet Rate Location/Type
Mon 07:32:33 PM 39.7333 -86.2833 207° Southwest 169 194 1,400  Level Indianapolis TRACON
Mon 07:33:39 PM 39.7667 -86.2500 38° Northeast 175 201 4,200 2,500 Climbing Indianapolis TRACON
Mon 07:34:33 PM 39.7500 -86.2000 113° Southeast 199 229 6,400 2,063 Climbing Indianapolis TRACON
Mon 07:35:00 PM 39.4150 -86.4463 199° South  Level FlightAware Approximate
Mon 07:36:00 PM 39.3130 -86.4969 207° Southwest  Level FlightAware Approximate
Mon 07:36:19 PM 39.6444 -86.2706 207° Southwest 281 323 9,700  Level Indianapolis Center
Mon 07:37:00 PM 39.2158 -86.5618 207° Southwest  Level FlightAware Approximate
Mon 07:37:21 PM 39.5650 -86.3253 208° Southwest 318 366 11,600  Level Indianapolis Center
Mon 07:39:00 PM 39.4077 -86.4496 199° South  Level FlightAware Approximate
Mon 07:39:24 PM 39.3508 -86.4725 199° South 405 466 16,400  Level Indianapolis Center
Mon 07:40:26 PM 39.2483 -86.5419 208° Southwest 415 478 18,900 2,049 Climbing Indianapolis Center
Mon 07:41:27 PM 39.1425 -86.6131 208° Southwest 427 491 20,600 1,707 Climbing Indianapolis Center
Mon 07:42:29 PM 39.0333 -86.6792 205° Southwest 441 507 22,400 1,622 Climbing Indianapolis Center
Mon 07:44:32 PM 38.7989 -86.8192 205° Southwest 467 537 25,600 1,654 Climbing Indianapolis Center
Mon 07:45:34 PM 38.6975 -86.9297 220° Southwest 478 550 27,500 1,854 Climbing Indianapolis Center
Mon 07:46:35 PM 38.5792 -87.0633 221° Southwest 474 545 29,400 1,561 Climbing Indianapolis Center
Mon 07:47:37 PM 38.4953 -87.1928 230° Southwest 479 551 30,700 1,210 Climbing Indianapolis Center
Mon 07:48:39 PM 38.4069 -87.3164 228° Southwest 481 554 31,900 1,122 Climbing Indianapolis Center
Mon 07:49:40 PM 38.3189 -87.4408 228° Southwest 478 550 33,000 685 Climbing Indianapolis Center
Mon 07:51:00 PM 38.2178 -87.5715 227° Southwest  Level FlightAware Approximate
Mon 07:51:43 PM 38.1428 -87.6853 227° Southwest 469 540 34,000  Level Indianapolis Center
Mon 07:52:45 PM 38.0539 -87.8092 228° Southwest 475 547 34,000  Level Indianapolis Center
Mon 07:53:46 PM 37.9469 -87.9578 228° Southwest 476 548 34,000  Level Indianapolis Center
Mon 07:54:48 PM 37.8572 -88.0814 227° Southwest 475 547 34,000  Level Indianapolis Center
Mon 07:55:49 PM 37.7672 -88.2056 228° Southwest 478 550 34,000  Level Indianapolis Center
Mon 07:56:51 PM 37.6758 -88.3289 227° Southwest 478 550 34,000 -43 Level Indianapolis Center
Mon 07:58:08 PM 37.5556 -88.5022 229° Southwest 481 554 33,900 -640 Descending Memphis Center
Mon 08:00:08 PM 37.3886 -88.7803 233° Southwest 493 567 31,900 -975 Descending Memphis Center
Mon 08:02:08 PM 37.2208 -89.0572 233° Southwest 504 580 30,000 -633 Descending Memphis Center
Mon 08:03:08 PM 37.1389 -89.1911 233° Southwest 504 580 30,000  Level Memphis Center
Mon 08:04:08 PM 37.0589 -89.3250 233° Southwest 504 580 30,000  Level Memphis Center
Mon 08:05:08 PM 36.9767 -89.4583 232° Southwest 494 568 30,000  Level Memphis Center
Mon 08:06:08 PM 36.8961 -89.5917 233° Southwest 494 568 30,000  Level Memphis Center
Mon 08:07:08 PM 36.8136 -89.7219 232° Southwest 494 568 30,000  Level Memphis Center
Mon 08:08:08 PM 36.7328 -89.8547 233° Southwest 489 563 30,000  Level Memphis Center
Mon 08:09:08 PM 36.6478 -89.9872 231° Southwest 489 563 30,000  Level Memphis Center
Mon 08:11:00 PM 36.5131 -90.1810 229° Southwest  Level FlightAware Approximate
Mon 08:11:08 PM 36.4858 -90.2433 229° Southwest 489 563 30,000  Level Memphis Center
Mon 08:13:08 PM 36.3253 -90.4961 232° Southwest 479 551 30,000  Level Memphis Center
Mon 08:14:08 PM 36.2439 -90.6219 231° Southwest 474 545 30,000  Level Memphis Center
Mon 08:15:08 PM 36.1664 -90.7478 233° Southwest 474 545 30,000  Level Memphis Center
Mon 08:17:08 PM 36.0047 -90.9933 231° Southwest 469 540 30,000  Level Memphis Center
Mon 08:18:08 PM 35.9250 -91.1158 231° Southwest 469 540 30,000  Level Memphis Center
Mon 08:19:08 PM 35.8469 -91.2406 232° Southwest 464 534 30,000  Level Memphis Center
Mon 08:20:08 PM 35.7669 -91.3575 230° Southwest 464 534 30,000  Level Memphis Center
Mon 08:21:08 PM 35.7011 -91.4664 233° Southwest 464 534 30,000  Level Memphis Center
Mon 08:22:08 PM 35.6250 -91.5881 232° Southwest 459 528 30,000  Level Memphis Center
Mon 08:23:08 PM 35.5444 -91.7044 230° Southwest 454 522 30,000  Level Memphis Center
Mon 08:24:08 PM 35.4639 -91.8253 231° Southwest 454 522 30,000  Level Memphis Center
Mon 08:25:08 PM 35.3875 -91.9411 231° Southwest 454 522 30,000 500 Level Memphis Center
Mon 08:26:08 PM 35.3086 -92.0592 231° Southwest 454 522 31,000 1,100 Climbing Memphis Center
Mon 08:27:08 PM 35.2300 -92.1772 231° Southwest 454 522 32,200 1,300 Climbing Memphis Center
Mon 08:28:08 PM 35.1553 -92.2897 231° Southwest 448 516 33,600 900 Climbing Memphis Center
Mon 08:29:08 PM 35.0825 -92.4022 232° Southwest 442 509 34,000 200 Climbing Memphis Center
Mon 08:30:08 PM 35.0033 -92.5144 229° Southwest 437 503 34,000  Level Memphis Center
Mon 08:31:08 PM 34.9306 -92.6242 231° Southwest 437 503 34,000  Level Memphis Center
Mon 08:32:08 PM 34.8553 -92.7358 231° Southwest 437 503 34,000  Level Memphis Center
Mon 08:33:08 PM 34.7822 -92.8453 231° Southwest 432 497 34,000  Level Memphis Center
Mon 08:35:00 PM 34.6386 -93.0292 232° Southwest  Level FlightAware Approximate
Mon 08:36:08 PM 34.5606 -93.1692 232° Southwest 421 484 34,000  Level Memphis Center
Mon 08:38:16 PM 34.4094 -93.3961 231° Southwest 411 473 34,000  Level Fort Worth Center
Mon 08:39:16 PM 34.3358 -93.5028 230° Southwest 411 473 34,000  Level Fort Worth Center
Mon 08:41:16 PM 34.2578 -93.7525 249° West 397 457 34,000  Level Fort Worth Center
Mon 08:42:16 PM 34.2217 -93.8822 251° West 404 465 34,000  Level Fort Worth Center
Mon 08:43:16 PM 34.1856 -94.0092 251° West 404 465 34,000  Level Fort Worth Center
Mon 08:44:16 PM 34.1514 -94.1358 252° West 404 465 34,000  Level Fort Worth Center
Mon 08:45:16 PM 34.1131 -94.2628 250° West 404 465 34,000  Level Fort Worth Center
Mon 08:46:16 PM 34.0722 -94.3872 248° West 409 471 34,000  Level Fort Worth Center
Mon 08:47:16 PM 34.0314 -94.5139 249° West 409 471 34,000 -25 Level Fort Worth Center
Mon 08:49:00 PM 33.9702 -94.7359 251° West  Level FlightAware Approximate
Mon 08:50:16 PM 33.9058 -94.8883 251° West 414 476 33,900  Level Fort Worth Center
Mon 08:51:16 PM 33.8667 -95.0147 250° West 414 476 32,900 -1,100 Descending Fort Worth Center
Mon 08:52:16 PM 33.8231 -95.1433 248° West 414 476 31,700 -1,800 Descending Fort Worth Center
Mon 08:53:16 PM 33.7775 -95.2719 247° West 414 476 29,300 -2,350 Descending Fort Worth Center
Mon 08:54:16 PM 33.7358 -95.4078 250° West 424 488 27,000 -1,900 Descending Fort Worth Center
Mon 08:55:16 PM 33.6919 -95.5461 249° West 437 503 25,500 -1,050 Descending Fort Worth Center
Mon 08:56:16 PM 33.6419 -95.6869 247° West 444 511 24,900 -1,100 Descending Fort Worth Center
Mon 08:58:00 PM 33.6012 -95.9208 258° West  Level FlightAware Approximate
Mon 08:59:16 PM 33.4989 -96.1106 258° West 449 517 21,100  Level Fort Worth Center
Mon 09:00:16 PM 33.4603 -96.2283 249° West 432 497 18,200 -2,550 Descending Fort Worth Center
Mon 09:01:16 PM 33.4114 -96.3683 247° West 421 484 16,000 -1,650 Descending Fort Worth Center
Mon 09:02:16 PM 33.3558 -96.4511 231° Southwest 381 438 14,900 -1,650 Descending Fort Worth Center
Mon 09:03:16 PM 33.2814 -96.5411 225° Southwest 354 407 12,700 -1,300 Descending Fort Worth Center
Mon 09:05:16 PM 33.1528 -96.6939 225° Southwest 341 392 11,000 -567 Descending Fort Worth Center
Mon 09:06:16 PM 33.0803 -96.7811 225° Southwest 341 392 11,000  Level Fort Worth Center
Mon 09:07:16 PM 33.0261 -96.8436 224° Southwest 324 373 11,000 -200 Level Fort Worth Center
Mon 09:08:16 PM 32.9658 -96.9058 221° Southwest 288 331 10,600 -1,250 Descending Fort Worth Center
Mon 09:09:16 PM 32.9011 -96.9061 180° South 248 285 8,500 -2,381 Descending Fort Worth Center
Mon 09:10:22 PM 32.8167 -96.9167 186° South 254 292 5,600 -2,636 Descending Dallas / Fort Worth TRACON

Login

Don't have an account? Register now (free) for customized features, flight alerts, and more!